createdAt,value
2022-12-29T00:02:34.734Z,6.57
2022-12-29T00:07:36.520Z,6.56
2022-12-29T00:12:56.770Z,6.55
2022-12-29T00:17:58.297Z,6.56
2022-12-29T00:23:18.607Z,6.56
2022-12-29T00:28:38.911Z,6.54
2022-12-29T00:33:59.158Z,6.54
2022-12-29T00:39:22.588Z,6.54
2022-12-29T00:44:24.145Z,6.55
2022-12-29T00:49:31.788Z,6.57
2022-12-29T00:54:36.656Z,6.59
2022-12-29T00:59:39.687Z,6.61
2022-12-29T01:04:41.252Z,6.63
2022-12-29T01:10:02.327Z,6.64
2022-12-29T01:15:04.496Z,6.62
2022-12-29T01:20:06.632Z,6.61
2022-12-29T01:25:08.969Z,6.61
2022-12-29T01:30:13.581Z,6.61
2022-12-29T01:35:15.754Z,6.60
2022-12-29T01:40:17.461Z,6.58
2022-12-29T01:45:19.994Z,6.58
2022-12-29T01:50:25.297Z,6.57
2022-12-29T01:55:30.348Z,6.56
2022-12-29T02:00:32.140Z,6.55
2022-12-29T02:05:40.377Z,6.53
2022-12-29T02:10:43.017Z,6.48
2022-12-29T02:16:20.516Z,6.49
2022-12-29T02:21:57.269Z,6.47
2022-12-29T02:27:25.150Z,6.46
2022-12-29T02:32:29.644Z,6.46
2022-12-29T02:37:43.101Z,6.48
2022-12-29T02:43:02.796Z,6.47
2022-12-29T02:48:27.301Z,6.45
2022-12-29T02:53:49.147Z,6.42
2022-12-29T02:58:50.800Z,6.41
2022-12-29T03:04:08.500Z,6.42
2022-12-29T03:09:28.121Z,6.41
2022-12-29T03:15:16.614Z,6.40
2022-12-29T03:20:24.853Z,6.37
2022-12-29T03:25:36.801Z,6.38
2022-12-29T03:30:44.658Z,6.38
2022-12-29T03:35:50.274Z,6.41
2022-12-29T03:40:56.571Z,6.46
2022-12-29T03:45:59.784Z,6.47
2022-12-29T03:51:01.375Z,6.48
2022-12-29T03:56:03.776Z,6.49
2022-12-29T04:01:05.531Z,6.50
2022-12-29T04:06:09.825Z,6.54
2022-12-29T04:11:18.223Z,6.58
2022-12-29T04:16:20.318Z,6.58
2022-12-29T04:21:22.427Z,6.60
2022-12-29T04:26:24.156Z,6.62
2022-12-29T04:31:35.099Z,6.61
2022-12-29T04:36:37.053Z,6.62
2022-12-29T04:41:38.837Z,6.62
2022-12-29T04:46:43.058Z,6.64
2022-12-29T04:51:53.393Z,6.63
2022-12-29T04:56:55.529Z,6.64
2022-12-29T05:01:57.169Z,6.64
2022-12-29T05:06:59.171Z,6.65
2022-12-29T05:12:00.885Z,6.65
2022-12-29T05:17:02.575Z,6.66
2022-12-29T05:22:04.281Z,6.67
2022-12-29T05:27:06.790Z,6.67
2022-12-29T05:32:23.721Z,6.66
2022-12-29T05:37:25.498Z,6.65
2022-12-29T05:42:27.076Z,6.64
2022-12-29T05:47:47.173Z,6.61
2022-12-29T05:53:07.139Z,6.60
2022-12-29T05:58:10.938Z,6.59
2022-12-29T06:03:12.756Z,6.60
2022-12-29T06:08:14.460Z,6.61
2022-12-29T06:13:16.067Z,6.65
2022-12-29T06:18:20.693Z,6.65
2022-12-29T06:23:22.764Z,6.66
2022-12-29T06:28:24.805Z,6.66
2022-12-29T06:33:28.188Z,6.67
2022-12-29T06:38:29.806Z,6.68
2022-12-29T06:43:33.133Z,6.71
2022-12-29T06:48:53.992Z,6.69
2022-12-29T06:53:55.523Z,6.68
2022-12-29T06:58:57.162Z,6.66
2022-12-29T07:03:58.776Z,6.63
2022-12-29T07:09:00.381Z,6.59
2022-12-29T07:14:02.067Z,6.60
2022-12-29T07:19:04.001Z,6.59
2022-12-29T07:24:05.957Z,6.56
2022-12-29T07:29:07.499Z,6.50
2022-12-29T07:34:09.742Z,6.49
2022-12-29T07:39:12.555Z,6.46
2022-12-29T07:44:14.167Z,6.43
2022-12-29T07:49:30.250Z,6.41
2022-12-29T07:54:32.006Z,6.42
2022-12-29T07:59:33.689Z,6.42
2022-12-29T08:04:35.328Z,6.45
2022-12-29T08:09:36.977Z,6.48
2022-12-29T08:14:38.580Z,6.50
2022-12-29T08:19:40.288Z,6.56
2022-12-29T08:24:41.827Z,6.59
2022-12-29T08:29:43.405Z,6.66
2022-12-29T08:34:45.164Z,6.69
2022-12-29T08:39:46.704Z,6.72
2022-12-29T08:44:48.261Z,6.76
2022-12-29T08:49:49.778Z,6.79
2022-12-29T08:54:51.467Z,6.84
2022-12-29T08:59:53.196Z,6.86
2022-12-29T09:04:54.871Z,6.88
2022-12-29T09:09:56.603Z,6.95
2022-12-29T09:14:58.217Z,7.02
2022-12-29T09:19:59.705Z,7.03
2022-12-29T09:25:01.302Z,7.03
2022-12-29T09:30:05.445Z,7.07
2022-12-29T09:35:07.291Z,7.08
2022-12-29T09:40:23.258Z,7.18
2022-12-29T09:45:40.922Z,7.23
2022-12-29T09:50:47.880Z,7.29
2022-12-29T09:55:52.769Z,7.34
2022-12-29T10:01:05.654Z,7.45
2022-12-29T10:06:45.569Z,7.54
2022-12-29T10:12:07.514Z,7.62
2022-12-29T10:17:20.485Z,7.67
2022-12-29T10:22:48.192Z,7.76
2022-12-29T10:27:51.517Z,7.82
2022-12-29T10:32:57.578Z,7.91
2022-12-29T10:38:23.987Z,7.94
2022-12-29T10:43:39.214Z,7.97
2022-12-29T10:48:40.863Z,8.01
2022-12-29T10:54:07.435Z,8.06
2022-12-29T10:59:21.860Z,8.09
2022-12-29T11:04:35.577Z,8.22
2022-12-29T11:09:43.360Z,8.25
2022-12-29T11:14:45.105Z,8.40
2022-12-29T11:19:46.728Z,8.57
2022-12-29T11:24:50.040Z,8.67
2022-12-29T11:29:53.060Z,8.88
2022-12-29T11:34:54.715Z,9.03
2022-12-29T11:40:00.315Z,9.21
2022-12-29T11:45:10.915Z,9.36
2022-12-29T11:50:19.564Z,9.59
2022-12-29T11:55:26.707Z,9.86
2022-12-29T12:00:31.805Z,10.07
2022-12-29T12:05:53.633Z,10.28
2022-12-29T12:11:13.074Z,10.50
2022-12-29T12:16:19.611Z,10.65
2022-12-29T12:21:45.082Z,10.82
2022-12-29T12:27:16.201Z,10.93
2022-12-29T12:32:47.551Z,11.06
2022-12-29T12:38:30.824Z,11.10
2022-12-29T12:43:47.260Z,11.19
2022-12-29T12:49:02.418Z,11.27
2022-12-29T12:54:15.835Z,11.34
2022-12-29T12:59:43.288Z,11.42
2022-12-29T13:05:00.373Z,11.48
2022-12-29T13:10:41.237Z,11.49
2022-12-29T13:15:53.856Z,11.57
2022-12-29T13:21:12.465Z,11.59
2022-12-29T13:26:22.565Z,11.68
2022-12-29T13:31:43.535Z,11.76
2022-12-29T13:36:50.052Z,11.71
2022-12-29T13:41:54.344Z,11.75
2022-12-29T13:47:00.084Z,11.71
2022-12-29T13:52:17.816Z,11.74
2022-12-29T13:57:51.632Z,11.75
2022-12-29T14:03:44.539Z,11.78
2022-12-29T14:08:47.132Z,11.84
2022-12-29T14:13:49.780Z,11.87
2022-12-29T14:18:51.482Z,11.84
2022-12-29T14:23:54.905Z,11.90
2022-12-29T14:29:01.417Z,11.95
2022-12-29T14:34:12.505Z,11.96
2022-12-29T14:39:45.206Z,11.96
2022-12-29T14:44:57.535Z,11.93
2022-12-29T14:50:07.588Z,11.95
2022-12-29T14:55:18.210Z,11.98
2022-12-29T15:00:25.477Z,11.97
2022-12-29T15:05:38.719Z,11.92
2022-12-29T15:10:52.453Z,11.91
2022-12-29T15:15:54.074Z,11.91
2022-12-29T15:21:04.389Z,11.88
2022-12-29T15:26:07.797Z,11.89
2022-12-29T15:31:15.354Z,11.89
2022-12-29T15:36:26.857Z,11.87
2022-12-29T15:42:01.128Z,11.85
2022-12-29T15:47:29.606Z,11.87
2022-12-29T15:52:33.741Z,11.88
2022-12-29T15:57:44.008Z,11.86
2022-12-29T16:02:45.788Z,11.84
2022-12-29T16:07:59.358Z,11.81
2022-12-29T16:13:07.005Z,11.80
2022-12-29T16:18:26.613Z,11.77
2022-12-29T16:23:30.780Z,11.75
2022-12-29T16:28:39.893Z,11.75
2022-12-29T16:33:46.950Z,11.73
2022-12-29T16:38:48.555Z,11.71
2022-12-29T16:44:18.835Z,11.71
2022-12-29T16:49:23.674Z,11.71
2022-12-29T16:54:37.792Z,11.66
2022-12-29T16:59:43.768Z,11.66
2022-12-29T17:04:49.335Z,11.62
2022-12-29T17:09:51.477Z,11.62
2022-12-29T17:14:57.502Z,11.62
2022-12-29T17:20:07.601Z,11.59
2022-12-29T17:25:13.685Z,11.62
2022-12-29T17:30:25.054Z,11.64
2022-12-29T17:35:28.833Z,11.64
2022-12-29T17:40:33.306Z,11.61
2022-12-29T17:45:34.873Z,11.57
2022-12-29T17:50:36.514Z,11.48
2022-12-29T17:55:38.933Z,11.48
2022-12-29T18:00:40.733Z,11.52
2022-12-29T18:05:42.749Z,11.55
2022-12-29T18:10:45.133Z,11.57
2022-12-29T18:15:47.123Z,11.55
2022-12-29T18:20:50.680Z,11.60
2022-12-29T18:25:59.947Z,11.60
2022-12-29T18:31:02.345Z,11.61
2022-12-29T18:36:05.423Z,11.60
2022-12-29T18:41:15.705Z,11.58
2022-12-29T18:46:22.800Z,11.63
2022-12-29T18:51:26.096Z,11.65
2022-12-29T18:56:27.625Z,11.69
2022-12-29T19:01:29.329Z,11.73
2022-12-29T19:06:30.997Z,11.75
2022-12-29T19:11:32.992Z,11.75
2022-12-29T19:16:34.612Z,11.75
2022-12-29T19:21:37.662Z,11.78
2022-12-29T19:26:40.467Z,11.79
2022-12-29T19:31:42.328Z,11.83
2022-12-29T19:36:45.087Z,11.84
2022-12-29T19:41:46.651Z,11.84
2022-12-29T19:46:48.264Z,11.83
2022-12-29T19:51:49.968Z,11.85
2022-12-29T19:56:51.576Z,11.84
2022-12-29T20:01:53.247Z,11.85
2022-12-29T20:06:54.961Z,11.87
2022-12-29T20:11:56.472Z,11.84
2022-12-29T20:17:10.861Z,11.84
2022-12-29T20:22:13.119Z,11.84
2022-12-29T20:27:14.781Z,11.84
2022-12-29T20:32:20.807Z,11.85
2022-12-29T20:37:22.518Z,11.82
2022-12-29T20:42:24.098Z,11.80
2022-12-29T20:47:25.681Z,11.78
2022-12-29T20:52:27.455Z,11.78
2022-12-29T20:57:35.242Z,11.79
2022-12-29T21:02:50.587Z,11.77
2022-12-29T21:07:53.405Z,11.78
2022-12-29T21:12:54.923Z,11.78
2022-12-29T21:17:56.456Z,11.76
2022-12-29T21:23:00.145Z,11.77
2022-12-29T21:28:01.688Z,11.77
2022-12-29T21:33:04.460Z,11.78
2022-12-29T21:38:06.809Z,11.77
2022-12-29T21:43:11.233Z,11.77
2022-12-29T21:48:23.645Z,11.77
2022-12-29T21:53:37.703Z,11.76
2022-12-29T21:59:00.036Z,11.76
2022-12-29T22:04:20.287Z,11.75
2022-12-29T22:09:43.801Z,11.75
2022-12-29T22:14:45.696Z,11.76
2022-12-29T22:19:47.325Z,11.76
2022-12-29T22:24:48.937Z,11.77
2022-12-29T22:29:50.637Z,11.77
2022-12-29T22:34:52.363Z,11.75
2022-12-29T22:39:54.048Z,11.74
2022-12-29T22:44:55.595Z,11.74
2022-12-29T22:49:57.224Z,11.74
2022-12-29T22:55:04.594Z,11.69
2022-12-29T23:00:09.646Z,11.65
2022-12-29T23:05:11.426Z,11.63
2022-12-29T23:10:13.096Z,11.56
2022-12-29T23:15:14.629Z,11.53
2022-12-29T23:20:16.251Z,11.49
2022-12-29T23:25:17.774Z,11.40
2022-12-29T23:30:19.340Z,11.27
2022-12-29T23:35:20.887Z,11.13
2022-12-29T23:40:22.455Z,11.03
2022-12-29T23:45:23.978Z,10.95
2022-12-29T23:50:25.661Z,10.92
2022-12-29T23:55:27.299Z,10.81
